createdAt,value
2018-06-24T00:00:48.544Z,0.00
2018-06-24T00:01:48.522Z,0.00
2018-06-24T00:02:48.491Z,0.00
2018-06-24T00:03:48.509Z,0.00
2018-06-24T00:04:48.518Z,0.00
2018-06-24T00:05:48.493Z,0.00
2018-06-24T00:06:48.552Z,0.00
2018-06-24T00:07:48.536Z,0.00
2018-06-24T00:08:48.551Z,0.00
2018-06-24T00:09:48.536Z,0.00
2018-06-24T00:10:48.569Z,0.00
2018-06-24T00:11:48.528Z,0.00
2018-06-24T00:12:48.614Z,0.00
2018-06-24T00:13:48.637Z,0.00
2018-06-24T00:14:48.571Z,0.00
2018-06-24T00:15:48.550Z,0.00
2018-06-24T00:16:48.535Z,0.00
2018-06-24T00:17:48.595Z,0.00
2018-06-24T00:18:48.608Z,0.00
2018-06-24T00:19:48.591Z,0.00
2018-06-24T00:20:48.614Z,0.00
2018-06-24T00:21:48.561Z,0.00
2018-06-24T00:22:48.640Z,0.00
2018-06-24T00:23:48.640Z,0.00
2018-06-24T00:24:48.651Z,0.00
2018-06-24T00:25:48.602Z,0.00
2018-06-24T00:26:48.640Z,0.00
2018-06-24T00:27:48.634Z,0.00
2018-06-24T00:28:48.594Z,0.00
2018-06-24T00:29:48.625Z,0.00
2018-06-24T00:30:48.674Z,0.00
2018-06-24T00:31:48.664Z,0.00
2018-06-24T00:32:48.657Z,0.00
2018-06-24T00:33:48.665Z,0.00
2018-06-24T00:34:48.675Z,0.00
2018-06-24T00:35:48.726Z,0.00
2018-06-24T00:36:48.696Z,0.00
2018-06-24T00:37:48.682Z,0.00
2018-06-24T00:38:48.693Z,0.00
2018-06-24T00:39:48.686Z,0.00
2018-06-24T00:40:48.675Z,0.00
2018-06-24T00:41:48.684Z,0.00
2018-06-24T00:42:48.728Z,0.00
2018-06-24T00:43:48.660Z,0.00
2018-06-24T00:44:48.684Z,0.00
2018-06-24T00:45:48.698Z,0.00
2018-06-24T00:46:48.706Z,0.00
2018-06-24T00:47:48.698Z,0.00
2018-06-24T00:48:48.765Z,0.00
2018-06-24T00:49:48.748Z,0.00
2018-06-24T00:50:48.680Z,0.00
2018-06-24T00:51:48.758Z,0.00
2018-06-24T00:52:48.765Z,0.00
2018-06-24T00:53:48.706Z,0.00
2018-06-24T00:54:48.761Z,0.00
2018-06-24T00:55:48.720Z,0.00
2018-06-24T00:56:48.731Z,0.00
2018-06-24T00:57:48.739Z,0.00
2018-06-24T00:58:48.735Z,0.00
2018-06-24T00:59:48.769Z,0.00
2018-06-24T01:00:48.835Z,0.00
2018-06-24T01:01:48.737Z,0.00
2018-06-24T01:02:48.748Z,0.00
2018-06-24T01:03:48.803Z,0.00
2018-06-24T01:04:48.818Z,0.00
2018-06-24T01:05:48.760Z,0.00
2018-06-24T01:06:48.822Z,0.00
2018-06-24T01:07:48.742Z,0.00
2018-06-24T01:08:48.779Z,0.00
2018-06-24T01:09:48.824Z,0.00
2018-06-24T01:10:48.815Z,0.00
2018-06-24T01:11:48.836Z,0.00
2018-06-24T01:12:48.825Z,0.00
2018-06-24T01:13:48.851Z,0.00
2018-06-24T01:14:48.845Z,0.00
2018-06-24T01:15:48.876Z,0.00
2018-06-24T01:16:48.859Z,0.00
2018-06-24T01:17:48.805Z,0.00
2018-06-24T01:18:48.838Z,0.00
2018-06-24T01:19:48.909Z,0.00
2018-06-24T01:20:48.813Z,0.00
2018-06-24T01:21:48.833Z,0.00
2018-06-24T01:22:55.708Z,0.00
2018-06-24T01:23:48.878Z,0.00
2018-06-24T01:24:48.848Z,0.00
2018-06-24T01:25:48.897Z,0.00
2018-06-24T01:26:48.838Z,0.00
2018-06-24T01:27:48.852Z,0.00
2018-06-24T01:28:48.850Z,0.00
2018-06-24T01:29:48.912Z,0.00
2018-06-24T01:30:48.886Z,0.00
2018-06-24T01:31:48.902Z,0.00
2018-06-24T01:32:48.911Z,0.00
2018-06-24T01:33:48.904Z,0.00
2018-06-24T01:34:48.972Z,0.00
2018-06-24T01:35:48.873Z,0.00
2018-06-24T01:36:48.921Z,0.00
2018-06-24T01:37:48.888Z,0.00
2018-06-24T01:38:48.928Z,0.00
2018-06-24T01:39:48.896Z,0.00
2018-06-24T01:40:48.926Z,0.00
2018-06-24T01:41:48.949Z,0.00
2018-06-24T01:42:48.998Z,0.00
2018-06-24T01:43:49.042Z,0.00
2018-06-24T01:44:48.965Z,0.00
2018-06-24T01:45:48.939Z,0.00
2018-06-24T01:46:48.943Z,0.00
2018-06-24T01:47:48.926Z,0.00
2018-06-24T01:48:48.942Z,0.00
2018-06-24T01:49:48.936Z,0.00
2018-06-24T01:50:48.961Z,0.00
2018-06-24T01:51:48.970Z,0.00
2018-06-24T01:52:48.997Z,0.00
2018-06-24T01:53:48.979Z,0.00
2018-06-24T01:54:48.999Z,0.00
2018-06-24T01:55:48.956Z,0.00
2018-06-24T01:56:48.961Z,0.00
2018-06-24T01:57:49.022Z,0.00
2018-06-24T01:58:48.996Z,0.00
2018-06-24T01:59:49.007Z,0.00
2018-06-24T02:00:49.023Z,0.00
2018-06-24T02:01:48.947Z,0.00
2018-06-24T02:02:49.022Z,0.00
2018-06-24T02:03:48.994Z,0.00
2018-06-24T02:04:49.052Z,0.00
2018-06-24T02:05:49.019Z,0.00
2018-06-24T02:06:49.101Z,0.00
2018-06-24T02:07:49.028Z,0.00
2018-06-24T02:08:48.990Z,0.00
2018-06-24T02:09:49.014Z,0.00
2018-06-24T02:10:49.093Z,0.00
2018-06-24T02:11:49.006Z,0.00
2018-06-24T02:12:49.006Z,0.00
2018-06-24T02:13:49.034Z,0.00
2018-06-24T02:14:48.997Z,0.00
2018-06-24T02:15:49.010Z,0.00
2018-06-24T02:16:49.079Z,0.00
2018-06-24T02:17:49.047Z,0.00
2018-06-24T02:18:49.083Z,0.00
2018-06-24T02:19:49.060Z,0.00
2018-06-24T02:20:49.076Z,0.00
2018-06-24T02:21:49.072Z,0.00
2018-06-24T02:22:49.072Z,0.00
2018-06-24T02:23:49.097Z,0.00
2018-06-24T02:24:49.162Z,0.00
2018-06-24T02:25:49.092Z,0.00
2018-06-24T02:26:49.071Z,0.00
2018-06-24T02:27:49.136Z,0.00
2018-06-24T02:28:49.129Z,0.00
2018-06-24T02:29:49.050Z,0.00
2018-06-24T02:30:49.133Z,0.00
2018-06-24T02:31:49.127Z,0.00
2018-06-24T02:32:49.118Z,0.00
2018-06-24T02:33:49.072Z,0.00
2018-06-24T02:34:49.072Z,0.00
2018-06-24T02:35:49.088Z,0.00
2018-06-24T02:36:49.120Z,0.00
2018-06-24T02:37:49.122Z,0.00
2018-06-24T02:38:49.123Z,0.00
2018-06-24T02:39:49.080Z,0.00
2018-06-24T02:40:49.181Z,0.00
2018-06-24T02:41:49.182Z,0.00
2018-06-24T02:42:49.106Z,0.00
2018-06-24T02:43:49.185Z,0.00
2018-06-24T02:44:49.171Z,0.00
2018-06-24T02:45:49.317Z,0.00
2018-06-24T02:46:49.103Z,0.00
2018-06-24T02:47:49.134Z,0.00
2018-06-24T02:48:49.211Z,0.00
2018-06-24T02:49:49.182Z,0.00
2018-06-24T02:50:49.251Z,0.00
2018-06-24T02:51:49.167Z,0.00
2018-06-24T02:52:49.281Z,0.00
2018-06-24T02:53:49.350Z,0.00
2018-06-24T02:54:49.244Z,0.00
2018-06-24T02:55:49.194Z,0.00
2018-06-24T02:56:49.216Z,0.00
2018-06-24T02:57:49.204Z,0.00
2018-06-24T02:58:49.163Z,0.00
2018-06-24T02:59:49.195Z,0.00
2018-06-24T03:00:49.181Z,0.00
2018-06-24T03:01:49.235Z,0.00
2018-06-24T03:02:49.163Z,0.00
2018-06-24T03:03:49.219Z,0.00
2018-06-24T03:04:49.237Z,0.00
2018-06-24T03:05:49.259Z,0.00
2018-06-24T03:06:49.232Z,0.00
2018-06-24T03:07:49.246Z,0.00
2018-06-24T03:08:49.182Z,0.00
2018-06-24T03:09:50.768Z,0.00
2018-06-24T03:10:49.286Z,0.00
2018-06-24T03:11:49.277Z,0.00
2018-06-24T03:12:49.272Z,0.00
2018-06-24T03:13:49.276Z,0.00
2018-06-24T03:14:49.293Z,0.00
2018-06-24T03:15:49.254Z,0.00
2018-06-24T03:16:49.292Z,0.00
2018-06-24T03:17:49.304Z,0.00
2018-06-24T03:18:49.483Z,0.00
2018-06-24T03:19:49.224Z,0.00
2018-06-24T03:20:49.269Z,0.00
2018-06-24T03:21:49.742Z,0.00
2018-06-24T03:22:49.318Z,0.00
2018-06-24T03:23:49.316Z,0.00
2018-06-24T03:24:49.364Z,0.00
2018-06-24T03:25:49.386Z,0.00
2018-06-24T03:26:49.313Z,0.00
2018-06-24T03:27:49.390Z,0.00
2018-06-24T03:28:49.354Z,0.00
2018-06-24T03:29:49.502Z,0.00
2018-06-24T03:30:49.388Z,0.00
2018-06-24T03:31:49.334Z,0.00
2018-06-24T03:32:49.409Z,0.00
2018-06-24T03:33:49.363Z,0.00
2018-06-24T03:34:49.367Z,0.00
2018-06-24T03:35:49.388Z,0.00
2018-06-24T03:36:49.381Z,0.00
2018-06-24T03:37:49.460Z,5.63
2018-06-24T03:38:49.435Z,5.63
2018-06-24T03:39:49.385Z,5.63
2018-06-24T03:40:49.564Z,5.63
2018-06-24T03:41:49.308Z,5.63
2018-06-24T03:42:49.401Z,5.63
2018-06-24T03:43:49.486Z,5.63
2018-06-24T03:44:49.433Z,5.63
2018-06-24T03:45:49.500Z,5.63
2018-06-24T03:46:49.546Z,5.63
2018-06-24T03:47:49.354Z,5.63
2018-06-24T03:48:49.364Z,11.25
2018-06-24T03:49:49.338Z,11.25
2018-06-24T03:50:49.395Z,11.25
2018-06-24T03:51:49.402Z,11.25
2018-06-24T03:52:49.341Z,16.88
2018-06-24T03:53:49.327Z,16.88
2018-06-24T03:54:49.399Z,16.88
2018-06-24T03:55:49.454Z,16.88
2018-06-24T03:56:49.396Z,16.88
2018-06-24T03:57:49.505Z,16.88
2018-06-24T03:58:49.455Z,22.50
2018-06-24T03:59:49.420Z,22.50
2018-06-24T04:00:49.365Z,28.13
2018-06-24T04:01:49.472Z,28.13
2018-06-24T04:02:49.424Z,28.13
2018-06-24T04:03:49.468Z,22.50
2018-06-24T04:04:49.475Z,22.50
2018-06-24T04:05:49.460Z,22.50
2018-06-24T04:06:49.552Z,22.50
2018-06-24T04:07:49.617Z,22.50
2018-06-24T04:08:49.471Z,28.13
2018-06-24T04:09:49.642Z,28.13
2018-06-24T04:10:49.419Z,28.13
2018-06-24T04:11:49.494Z,28.13
2018-06-24T04:12:49.481Z,28.13
2018-06-24T04:13:49.459Z,28.13
2018-06-24T04:14:49.592Z,28.13
2018-06-24T04:15:49.647Z,28.13
2018-06-24T04:16:49.657Z,28.13
2018-06-24T04:17:49.555Z,28.13
2018-06-24T04:18:49.692Z,28.13
2018-06-24T04:19:49.519Z,28.13
2018-06-24T04:20:49.486Z,28.13
2018-06-24T04:21:49.510Z,28.13
2018-06-24T04:22:49.678Z,33.75
2018-06-24T04:23:49.589Z,33.75
2018-06-24T04:24:49.618Z,33.75
2018-06-24T04:25:49.699Z,39.38
2018-06-24T04:26:49.463Z,39.38
2018-06-24T04:27:49.589Z,39.38
2018-06-24T04:28:49.556Z,39.38
2018-06-24T04:29:49.621Z,39.38
2018-06-24T04:30:49.663Z,33.75
2018-06-24T04:31:49.469Z,33.75
2018-06-24T04:32:49.564Z,33.75
2018-06-24T04:33:49.660Z,33.75
2018-06-24T04:34:49.780Z,33.75
2018-06-24T04:35:49.541Z,33.75
2018-06-24T04:36:49.674Z,33.75
2018-06-24T04:37:49.534Z,33.75
2018-06-24T04:38:49.675Z,33.75
2018-06-24T04:39:49.626Z,33.75
2018-06-24T04:40:49.493Z,39.38
2018-06-24T04:41:49.524Z,39.38
2018-06-24T04:42:49.533Z,39.38
2018-06-24T04:43:49.533Z,39.38
2018-06-24T04:44:49.488Z,39.38
2018-06-24T04:45:49.787Z,39.38
2018-06-24T04:46:49.646Z,39.38
2018-06-24T04:47:49.642Z,39.38
2018-06-24T04:48:49.799Z,39.38
2018-06-24T04:49:49.637Z,39.38
2018-06-24T04:50:49.609Z,39.38
2018-06-24T04:51:49.687Z,39.38
2018-06-24T04:52:49.706Z,33.75
2018-06-24T04:53:49.661Z,39.38
2018-06-24T04:54:49.831Z,39.38
2018-06-24T04:55:49.602Z,39.38
2018-06-24T04:56:49.702Z,39.38
2018-06-24T04:57:49.835Z,39.38
2018-06-24T04:58:49.627Z,39.38
2018-06-24T04:59:49.825Z,39.38
2018-06-24T05:00:49.629Z,39.38
2018-06-24T05:01:49.730Z,39.38
2018-06-24T05:02:49.648Z,45.00
2018-06-24T05:03:49.792Z,45.00
2018-06-24T05:04:49.643Z,45.00
2018-06-24T05:05:49.805Z,45.00
2018-06-24T05:06:49.662Z,45.00
2018-06-24T05:07:49.648Z,45.00
2018-06-24T05:08:49.746Z,45.00
2018-06-24T05:09:50.102Z,45.00
2018-06-24T05:10:49.615Z,45.00
2018-06-24T05:11:49.811Z,45.00
2018-06-24T05:12:49.903Z,45.00
2018-06-24T05:13:49.968Z,45.00
2018-06-24T05:14:49.876Z,45.00
2018-06-24T05:15:49.962Z,45.00
2018-06-24T05:16:49.917Z,50.63
2018-06-24T05:17:49.775Z,45.00
2018-06-24T05:18:49.832Z,50.63
2018-06-24T05:19:49.870Z,50.63
2018-06-24T05:20:49.873Z,50.63
2018-06-24T05:21:49.815Z,50.63
2018-06-24T05:22:49.858Z,50.63
2018-06-24T05:23:49.834Z,56.25
2018-06-24T05:24:49.970Z,56.25
2018-06-24T05:25:49.787Z,56.25
2018-06-24T05:26:50.054Z,56.25
2018-06-24T05:27:50.374Z,61.88
2018-06-24T05:28:49.843Z,61.88
2018-06-24T05:29:50.036Z,67.50
2018-06-24T05:30:49.750Z,67.50
2018-06-24T05:31:50.019Z,73.13
2018-06-24T05:32:49.993Z,73.13
2018-06-24T05:33:49.903Z,67.50
2018-06-24T05:34:49.979Z,67.50
2018-06-24T05:35:49.928Z,67.50
2018-06-24T05:36:49.942Z,67.50
2018-06-24T05:37:49.826Z,67.50
2018-06-24T05:38:49.886Z,67.50
2018-06-24T05:39:50.278Z,67.50
2018-06-24T05:40:50.352Z,67.50
2018-06-24T05:41:49.997Z,67.50
2018-06-24T05:42:50.119Z,67.50
2018-06-24T05:43:50.222Z,67.50
2018-06-24T05:44:49.991Z,67.50
2018-06-24T05:45:49.951Z,67.50
2018-06-24T05:46:50.097Z,67.50
2018-06-24T05:47:49.939Z,73.13
2018-06-24T05:48:50.114Z,73.13
2018-06-24T05:49:49.979Z,73.13
2018-06-24T05:50:49.884Z,73.13
2018-06-24T05:51:50.892Z,73.13
2018-06-24T05:52:49.980Z,78.75
2018-06-24T05:53:50.066Z,78.75
2018-06-24T05:54:50.038Z,78.75
2018-06-24T05:55:50.017Z,84.38
2018-06-24T05:56:49.975Z,84.38
2018-06-24T05:57:50.651Z,78.75
2018-06-24T05:58:50.289Z,84.38
2018-06-24T05:59:49.885Z,84.38
2018-06-24T06:00:49.999Z,84.38
2018-06-24T06:01:50.053Z,84.38
2018-06-24T06:02:50.176Z,84.38
2018-06-24T06:03:49.771Z,84.38
2018-06-24T06:04:49.848Z,84.38
2018-06-24T06:05:50.299Z,84.38
2018-06-24T06:06:49.860Z,84.38
2018-06-24T06:07:50.317Z,84.38
2018-06-24T06:08:50.263Z,84.38
2018-06-24T06:09:50.031Z,84.38
2018-06-24T06:10:49.813Z,84.38
2018-06-24T06:11:50.049Z,78.75
2018-06-24T06:12:50.170Z,78.75
2018-06-24T06:13:51.003Z,78.75
2018-06-24T06:14:50.015Z,78.75
2018-06-24T06:15:49.892Z,78.75
2018-06-24T06:16:50.064Z,84.38
2018-06-24T06:17:49.830Z,84.38
2018-06-24T06:18:50.212Z,84.38
2018-06-24T06:19:49.842Z,84.38
2018-06-24T06:20:50.021Z,84.38
2018-06-24T06:21:50.448Z,84.38
2018-06-24T06:22:49.948Z,84.38
2018-06-24T06:23:50.396Z,84.38
2018-06-24T06:24:50.133Z,84.38
2018-06-24T06:25:50.321Z,90.00
2018-06-24T06:26:50.335Z,90.00
2018-06-24T06:27:50.292Z,90.00
2018-06-24T06:28:49.984Z,90.00
2018-06-24T06:29:50.324Z,90.00
2018-06-24T06:30:50.221Z,90.00
2018-06-24T06:31:50.323Z,90.00
2018-06-24T06:32:50.362Z,90.00
2018-06-24T06:33:50.150Z,90.00
2018-06-24T06:34:50.382Z,95.63
2018-06-24T06:35:50.103Z,95.63
2018-06-24T06:36:50.217Z,95.63
2018-06-24T06:37:50.453Z,101.25
2018-06-24T06:38:50.390Z,101.25
2018-06-24T06:39:50.325Z,101.25
2018-06-24T06:40:50.242Z,95.63
2018-06-24T06:41:50.499Z,95.63
2018-06-24T06:42:50.406Z,95.63
2018-06-24T06:43:50.366Z,95.63
2018-06-24T06:44:50.288Z,95.63
2018-06-24T06:45:50.111Z,90.00
2018-06-24T06:46:50.168Z,90.00
2018-06-24T06:47:50.534Z,90.00
2018-06-24T06:48:50.508Z,90.00
2018-06-24T06:49:50.313Z,90.00
2018-06-24T06:50:50.265Z,95.63
2018-06-24T06:51:50.165Z,90.00
2018-06-24T06:52:50.306Z,95.63
2018-06-24T06:53:50.255Z,90.00
2018-06-24T06:54:50.158Z,95.63
2018-06-24T06:55:50.123Z,95.63
2018-06-24T06:56:50.294Z,95.63
2018-06-24T06:57:50.174Z,95.63
2018-06-24T06:58:50.357Z,95.63
2018-06-24T06:59:50.232Z,95.63
2018-06-24T07:00:50.232Z,95.63
2018-06-24T07:01:50.408Z,95.63
2018-06-24T07:02:50.595Z,95.63
2018-06-24T07:03:50.168Z,95.63
2018-06-24T07:04:50.161Z,95.63
2018-06-24T07:05:50.140Z,95.63
2018-06-24T07:06:50.167Z,95.63
2018-06-24T07:07:50.170Z,95.63
2018-06-24T07:08:50.196Z,84.38
2018-06-24T07:09:50.263Z,78.75
2018-06-24T07:10:50.392Z,78.75
2018-06-24T07:11:50.223Z,78.75
2018-06-24T07:12:50.313Z,78.75
2018-06-24T07:13:50.182Z,78.75
2018-06-24T07:14:50.609Z,78.75
2018-06-24T07:15:50.359Z,84.38
2018-06-24T07:16:50.375Z,84.38
2018-06-24T07:17:50.229Z,78.75
2018-06-24T07:18:50.316Z,84.38
2018-06-24T07:19:50.346Z,90.00
2018-06-24T07:20:50.644Z,95.63
2018-06-24T07:21:50.723Z,90.00
2018-06-24T07:22:50.391Z,78.75
2018-06-24T07:23:50.257Z,78.75
2018-06-24T07:24:50.307Z,73.13
2018-06-24T07:25:50.405Z,73.13
2018-06-24T07:26:50.409Z,78.75
2018-06-24T07:27:50.363Z,78.75
2018-06-24T07:28:50.757Z,73.13
2018-06-24T07:29:50.420Z,73.13
2018-06-24T07:30:50.424Z,73.13
2018-06-24T07:31:50.333Z,73.13
2018-06-24T07:32:50.455Z,78.75
2018-06-24T07:33:50.562Z,78.75
2018-06-24T07:34:50.267Z,78.75
2018-06-24T07:35:50.432Z,73.13
2018-06-24T07:36:50.325Z,78.75
2018-06-24T07:37:50.428Z,84.38
2018-06-24T07:38:50.649Z,84.38
2018-06-24T07:39:50.449Z,84.38
2018-06-24T07:40:50.309Z,84.38
2018-06-24T07:41:50.292Z,84.38
2018-06-24T07:42:50.289Z,90.00
2018-06-24T07:43:50.287Z,84.38
2018-06-24T07:44:50.297Z,90.00
2018-06-24T07:45:50.349Z,90.00
2018-06-24T07:46:50.403Z,90.00
2018-06-24T07:47:50.324Z,90.00
2018-06-24T07:48:50.396Z,95.63
2018-06-24T07:49:50.321Z,101.25
2018-06-24T07:50:50.358Z,95.63
2018-06-24T07:51:50.347Z,101.25
2018-06-24T07:52:50.338Z,101.25
2018-06-24T07:53:50.364Z,106.88
2018-06-24T07:54:50.466Z,106.88
2018-06-24T07:55:50.473Z,95.63
2018-06-24T07:56:50.473Z,95.63
2018-06-24T07:57:50.668Z,101.25
2018-06-24T07:58:50.449Z,95.63
2018-06-24T07:59:50.430Z,95.63
2018-06-24T08:00:50.571Z,95.63
2018-06-24T08:01:50.471Z,95.63
2018-06-24T08:02:50.481Z,101.25
2018-06-24T08:03:50.540Z,95.63
2018-06-24T08:04:50.663Z,101.25
2018-06-24T08:05:50.599Z,95.63
2018-06-24T08:06:50.483Z,84.38
2018-06-24T08:07:50.535Z,90.00
2018-06-24T08:08:50.479Z,95.63
2018-06-24T08:09:50.506Z,101.25
2018-06-24T08:10:50.601Z,101.25
2018-06-24T08:11:50.791Z,106.88
2018-06-24T08:12:50.557Z,106.88
2018-06-24T08:13:50.754Z,101.25
2018-06-24T08:14:50.777Z,95.63
2018-06-24T08:15:50.487Z,101.25
2018-06-24T08:16:50.496Z,101.25
2018-06-24T08:17:50.566Z,101.25
2018-06-24T08:18:50.479Z,101.25
2018-06-24T08:19:50.511Z,90.00
2018-06-24T08:20:50.646Z,84.38
2018-06-24T08:21:50.666Z,95.63
2018-06-24T08:22:50.760Z,95.63
2018-06-24T08:23:50.570Z,95.63
2018-06-24T08:24:50.751Z,95.63
2018-06-24T08:25:50.841Z,101.25
2018-06-24T08:26:50.641Z,101.25
2018-06-24T08:27:50.657Z,95.63
2018-06-24T08:28:50.807Z,95.63
2018-06-24T08:29:50.813Z,90.00
2018-06-24T08:30:50.700Z,90.00
2018-06-24T08:31:51.225Z,78.75
2018-06-24T08:32:51.137Z,95.63
2018-06-24T08:33:50.663Z,112.50
2018-06-24T08:34:50.722Z,112.50
2018-06-24T08:35:50.623Z,118.13
2018-06-24T08:36:50.749Z,118.13
2018-06-24T08:37:50.680Z,129.38
2018-06-24T08:38:50.634Z,123.75
2018-06-24T08:39:50.870Z,123.75
2018-06-24T08:40:50.665Z,123.75
2018-06-24T08:41:50.655Z,123.75
2018-06-24T08:42:50.702Z,123.75
2018-06-24T08:43:50.663Z,129.38
2018-06-24T08:44:50.802Z,135.00
2018-06-24T08:45:50.752Z,140.63
2018-06-24T08:46:50.882Z,135.00
2018-06-24T08:47:50.693Z,140.63
2018-06-24T08:48:50.895Z,146.25
2018-06-24T08:49:50.738Z,146.25
2018-06-24T08:50:50.920Z,157.50
2018-06-24T08:51:50.743Z,157.50
2018-06-24T08:52:50.741Z,168.75
2018-06-24T08:53:50.707Z,174.38
2018-06-24T08:54:50.771Z,157.50
2018-06-24T08:55:50.912Z,151.88
2018-06-24T08:56:50.917Z,168.75
2018-06-24T08:57:50.778Z,174.38
2018-06-24T08:58:50.921Z,174.38
2018-06-24T08:59:51.036Z,174.38
2018-06-24T09:00:50.894Z,174.38
2018-06-24T09:01:50.863Z,168.75
2018-06-24T09:02:50.738Z,163.13
2018-06-24T09:03:50.852Z,163.13
2018-06-24T09:04:51.139Z,163.13
2018-06-24T09:05:50.797Z,151.88
2018-06-24T09:06:50.863Z,157.50
2018-06-24T09:07:50.855Z,135.00
2018-06-24T09:08:50.842Z,112.50
2018-06-24T09:09:50.913Z,112.50
2018-06-24T09:10:50.969Z,118.13
2018-06-24T09:11:50.850Z,118.13
2018-06-24T09:12:50.876Z,118.13
2018-06-24T09:13:50.838Z,118.13
2018-06-24T09:14:50.966Z,118.13
2018-06-24T09:15:50.906Z,118.13
2018-06-24T09:16:50.868Z,112.50
2018-06-24T09:17:50.848Z,112.50
2018-06-24T09:18:51.391Z,112.50
2018-06-24T09:19:50.855Z,112.50
2018-06-24T09:20:50.926Z,112.50
2018-06-24T09:21:50.986Z,106.88
2018-06-24T09:22:50.920Z,106.88
2018-06-24T09:23:50.905Z,112.50
2018-06-24T09:24:50.942Z,118.13
2018-06-24T09:25:50.909Z,118.13
2018-06-24T09:26:50.948Z,118.13
2018-06-24T09:27:50.984Z,123.75
2018-06-24T09:28:50.995Z,123.75
2018-06-24T09:29:50.934Z,123.75
2018-06-24T09:30:51.455Z,123.75
2018-06-24T09:31:51.167Z,123.75
2018-06-24T09:32:51.105Z,123.75
2018-06-24T09:33:51.057Z,123.75
2018-06-24T09:34:51.043Z,123.75
2018-06-24T09:35:51.009Z,123.75
2018-06-24T09:36:50.970Z,123.75
2018-06-24T09:37:51.037Z,123.75
2018-06-24T09:38:51.075Z,123.75
2018-06-24T09:39:51.043Z,129.38
2018-06-24T09:40:51.012Z,129.38
2018-06-24T09:41:51.056Z,135.00
2018-06-24T09:42:51.297Z,135.00
2018-06-24T09:43:51.044Z,135.00
2018-06-24T09:44:51.081Z,140.63
2018-06-24T09:45:51.064Z,140.63
2018-06-24T09:46:51.040Z,140.63
2018-06-24T09:47:51.118Z,140.63
2018-06-24T09:48:51.115Z,140.63
2018-06-24T09:49:51.129Z,146.25
2018-06-24T09:50:51.125Z,146.25
2018-06-24T09:51:51.503Z,146.25
2018-06-24T09:52:51.309Z,146.25
2018-06-24T09:53:51.414Z,140.63
2018-06-24T09:54:51.163Z,140.63
2018-06-24T09:55:51.152Z,140.63
2018-06-24T09:56:52.871Z,140.63
2018-06-24T09:57:51.180Z,146.25
2018-06-24T09:58:51.147Z,151.88
2018-06-24T09:59:51.306Z,146.25
2018-06-24T10:00:51.168Z,146.25
2018-06-24T10:01:51.158Z,146.25
2018-06-24T10:02:51.252Z,146.25
2018-06-24T10:03:51.220Z,146.25
2018-06-24T10:04:51.283Z,140.63
2018-06-24T10:05:51.330Z,140.63
2018-06-24T10:06:51.281Z,140.63
2018-06-24T10:07:51.228Z,135.00
2018-06-24T10:08:51.722Z,140.63
2018-06-24T10:09:51.262Z,140.63
2018-06-24T10:10:51.238Z,140.63
2018-06-24T10:11:51.338Z,146.25
2018-06-24T10:12:51.295Z,151.88
2018-06-24T10:13:51.285Z,146.25
2018-06-24T10:14:51.333Z,135.00
2018-06-24T10:15:51.277Z,129.38
2018-06-24T10:16:51.379Z,129.38
2018-06-24T10:17:51.293Z,123.75
2018-06-24T10:18:51.288Z,123.75
2018-06-24T10:19:51.320Z,123.75
2018-06-24T10:20:51.292Z,123.75
2018-06-24T10:21:51.321Z,118.13
2018-06-24T10:22:51.697Z,123.75
2018-06-24T10:23:51.386Z,123.75
2018-06-24T10:24:51.386Z,129.38
2018-06-24T10:25:51.322Z,129.38
2018-06-24T10:26:51.359Z,129.38
2018-06-24T10:27:51.391Z,129.38
2018-06-24T10:28:51.446Z,123.75
2018-06-24T10:29:51.361Z,123.75
2018-06-24T10:30:51.425Z,123.75
2018-06-24T10:31:51.410Z,129.38
2018-06-24T10:32:51.396Z,135.00
2018-06-24T10:33:51.399Z,140.63
2018-06-24T10:34:51.435Z,135.00
2018-06-24T10:35:51.422Z,135.00
2018-06-24T10:36:51.434Z,140.63
2018-06-24T10:37:51.456Z,140.63
2018-06-24T10:38:51.426Z,140.63
2018-06-24T10:39:51.451Z,140.63
2018-06-24T10:40:51.511Z,146.25
2018-06-24T10:41:51.488Z,146.25
2018-06-24T10:42:51.572Z,146.25
2018-06-24T10:43:51.515Z,151.88
2018-06-24T10:44:51.550Z,146.25
2018-06-24T10:45:51.503Z,146.25
2018-06-24T10:46:51.519Z,146.25
2018-06-24T10:47:51.533Z,146.25
2018-06-24T10:48:51.559Z,146.25
2018-06-24T10:49:51.551Z,151.88
2018-06-24T10:50:51.532Z,151.88
2018-06-24T10:51:53.484Z,151.88
2018-06-24T10:52:51.571Z,151.88
2018-06-24T10:53:51.628Z,146.25
2018-06-24T10:54:51.561Z,140.63
2018-06-24T10:55:51.560Z,135.00
2018-06-24T10:56:51.554Z,135.00
2018-06-24T10:57:51.595Z,135.00
2018-06-24T10:58:51.578Z,135.00
2018-06-24T10:59:51.796Z,135.00
2018-06-24T11:00:51.803Z,135.00
2018-06-24T11:01:51.626Z,135.00
2018-06-24T11:02:51.596Z,140.63
2018-06-24T11:03:51.680Z,140.63
2018-06-24T11:04:51.663Z,151.88
2018-06-24T11:05:51.693Z,146.25
2018-06-24T11:06:51.689Z,146.25
2018-06-24T11:07:51.668Z,146.25
2018-06-24T11:08:51.677Z,146.25
2018-06-24T11:09:51.694Z,146.25
2018-06-24T11:10:51.756Z,140.63
2018-06-24T11:11:51.756Z,135.00
2018-06-24T11:12:51.739Z,129.38
2018-06-24T11:13:51.710Z,129.38
2018-06-24T11:14:51.732Z,129.38
2018-06-24T11:15:51.734Z,129.38
2018-06-24T11:16:51.739Z,129.38
2018-06-24T11:17:51.728Z,129.38
2018-06-24T11:18:51.721Z,129.38
2018-06-24T11:19:51.772Z,129.38
2018-06-24T11:20:51.857Z,129.38
2018-06-24T11:21:51.814Z,129.38
2018-06-24T11:22:51.770Z,129.38
2018-06-24T11:23:51.817Z,129.38
2018-06-24T11:24:51.843Z,129.38
2018-06-24T11:25:51.785Z,129.38
2018-06-24T11:26:51.781Z,129.38
2018-06-24T11:27:51.790Z,135.00
2018-06-24T11:28:51.870Z,140.63
2018-06-24T11:29:51.868Z,140.63
2018-06-24T11:30:51.810Z,140.63
2018-06-24T11:31:51.901Z,140.63
2018-06-24T11:32:51.858Z,135.00
2018-06-24T11:33:51.915Z,135.00
2018-06-24T11:34:51.888Z,135.00
2018-06-24T11:35:51.880Z,135.00
2018-06-24T11:36:51.946Z,135.00
2018-06-24T11:37:51.869Z,129.38
2018-06-24T11:38:51.875Z,129.38
2018-06-24T11:39:51.890Z,123.75
2018-06-24T11:40:52.019Z,123.75
2018-06-24T11:41:51.926Z,118.13
2018-06-24T11:42:51.915Z,118.13
2018-06-24T11:43:51.914Z,118.13
2018-06-24T11:44:51.934Z,118.13
2018-06-24T11:45:51.991Z,118.13
2018-06-24T11:46:51.936Z,118.13
2018-06-24T11:47:52.054Z,118.13
2018-06-24T11:48:52.025Z,118.13
2018-06-24T11:49:52.006Z,118.13
2018-06-24T11:50:52.032Z,123.75
2018-06-24T11:51:53.907Z,129.38
2018-06-24T11:52:52.093Z,135.00
2018-06-24T11:53:51.991Z,135.00
2018-06-24T11:54:52.003Z,140.63
2018-06-24T11:55:52.094Z,151.88
2018-06-24T11:56:52.055Z,157.50
2018-06-24T11:57:52.037Z,163.13
2018-06-24T11:58:52.034Z,180.00
2018-06-24T11:59:52.124Z,174.38
2018-06-24T12:00:52.077Z,168.75
2018-06-24T12:01:52.221Z,191.25
2018-06-24T12:02:52.060Z,191.25
2018-06-24T12:03:52.299Z,168.75
2018-06-24T12:04:52.139Z,191.25
2018-06-24T12:05:52.138Z,174.38
2018-06-24T12:06:52.169Z,163.13
2018-06-24T12:07:52.166Z,151.88
2018-06-24T12:08:52.160Z,151.88
2018-06-24T12:09:52.298Z,151.88
2018-06-24T12:10:52.215Z,151.88
2018-06-24T12:11:52.171Z,151.88
2018-06-24T12:12:52.188Z,146.25
2018-06-24T12:13:52.190Z,146.25
2018-06-24T12:14:52.209Z,151.88
2018-06-24T12:15:52.211Z,157.50
2018-06-24T12:16:52.170Z,157.50
2018-06-24T12:17:52.225Z,157.50
2018-06-24T12:18:52.229Z,157.50
2018-06-24T12:19:52.202Z,202.50
2018-06-24T12:20:52.240Z,180.00
2018-06-24T12:21:52.297Z,202.50
2018-06-24T12:22:52.264Z,202.50
2018-06-24T12:23:52.295Z,258.75
2018-06-24T12:24:52.300Z,258.75
2018-06-24T12:25:52.292Z,253.13
2018-06-24T12:26:52.298Z,180.00
2018-06-24T12:27:52.279Z,174.38
2018-06-24T12:28:52.296Z,146.25
2018-06-24T12:29:53.820Z,135.00
2018-06-24T12:30:52.351Z,129.38
2018-06-24T12:31:52.383Z,118.13
2018-06-24T12:32:52.306Z,112.50
2018-06-24T12:33:52.345Z,106.88
2018-06-24T12:34:52.365Z,112.50
2018-06-24T12:35:52.409Z,112.50
2018-06-24T12:36:52.366Z,112.50
2018-06-24T12:37:52.428Z,112.50
2018-06-24T12:38:52.392Z,118.13
2018-06-24T12:39:52.473Z,118.13
2018-06-24T12:40:52.400Z,123.75
2018-06-24T12:41:52.387Z,123.75
2018-06-24T12:42:52.464Z,123.75
2018-06-24T12:43:52.452Z,129.38
2018-06-24T12:44:52.469Z,140.63
2018-06-24T12:45:52.466Z,146.25
2018-06-24T12:46:53.267Z,146.25
2018-06-24T12:47:52.491Z,146.25
2018-06-24T12:48:52.474Z,157.50
2018-06-24T12:49:52.448Z,151.88
2018-06-24T12:50:52.454Z,174.38